Redovan, Spain
Current Conditions -  °F | °C
As of 4:30 AM on Sunday 23 Nov 2014 (Local Time) from LEAL Reporting Station
Few Clouds Few Clouds  
Wind Chill: 66°   Ceiling: Unl
Heat Index: 66°   Visibility: 6mi
Dew Point: 59°   Wind: 12mph
Humidity: 78%   Direction: 50°NE
Pressure: 29.94"   Gusts: NA
Location:  38.12°N, 0.91°W
Report Text: LEAL 230330Z 05010KT 9999 FEW040 19/15 Q1014 NOSIG
Loading
Personal Weather Stations






























Interactive Weather Map New forecast layout! Learn more

10-Day Weather Forecast

Advertisements
Track Severe Weather on mobile